createdAt,value
2022-10-05T00:00:43.762Z,1.04
2022-10-05T00:01:43.919Z,1.04
2022-10-05T00:02:43.951Z,1.04
2022-10-05T00:03:44.321Z,1.04
2022-10-05T00:04:44.222Z,1.04
2022-10-05T00:05:44.361Z,1.04
2022-10-05T00:06:44.772Z,1.04
2022-10-05T00:07:44.635Z,1.04
2022-10-05T00:08:44.759Z,1.04
2022-10-05T00:09:45.472Z,1.04
2022-10-05T00:10:45.076Z,1.04
2022-10-05T00:11:45.187Z,1.04
2022-10-05T00:12:45.293Z,1.04
2022-10-05T00:13:45.381Z,1.04
2022-10-05T00:14:45.959Z,1.04
2022-10-05T00:15:45.692Z,1.04
2022-10-05T00:16:46.188Z,1.04
2022-10-05T00:17:45.941Z,1.04
2022-10-05T00:18:46.046Z,1.04
2022-10-05T00:19:46.139Z,1.04
2022-10-05T00:20:46.241Z,1.04
2022-10-05T00:21:46.395Z,1.04
2022-10-05T00:22:46.522Z,1.04
2022-10-05T00:23:46.644Z,1.04
2022-10-05T00:24:46.805Z,1.04
2022-10-05T00:25:46.902Z,1.04
2022-10-05T00:26:47.303Z,1.04
2022-10-05T00:27:47.184Z,1.04
2022-10-05T00:28:47.359Z,1.04
2022-10-05T00:29:47.894Z,1.04
2022-10-05T00:30:47.616Z,1.04
2022-10-05T00:31:47.768Z,1.04
2022-10-05T00:32:47.828Z,1.04
2022-10-05T00:33:47.910Z,1.04
2022-10-05T00:34:48.027Z,1.04
2022-10-05T00:35:48.172Z,1.04
2022-10-05T00:36:48.754Z,1.04
2022-10-05T00:37:48.482Z,1.04
2022-10-05T00:38:48.628Z,1.04
2022-10-05T00:39:48.730Z,1.04
2022-10-05T00:40:48.842Z,1.04
2022-10-05T00:41:48.933Z,1.04
2022-10-05T00:42:49.083Z,1.04
2022-10-05T00:43:49.190Z,1.04
2022-10-05T00:44:49.715Z,1.04
2022-10-05T00:45:49.505Z,1.04
2022-10-05T00:46:49.535Z,1.04
2022-10-05T00:47:49.641Z,1.04
2022-10-05T00:48:49.743Z,1.04
2022-10-05T00:49:49.894Z,1.04
2022-10-05T00:50:50.047Z,1.04
2022-10-05T00:51:50.204Z,1.04
2022-10-05T00:52:50.308Z,1.04
2022-10-05T00:53:50.402Z,1.04
2022-10-05T00:54:50.509Z,1.04
2022-10-05T00:55:50.638Z,1.04
2022-10-05T00:56:50.784Z,1.04
2022-10-05T00:57:50.921Z,1.04
2022-10-05T00:58:51.073Z,1.04
2022-10-05T00:59:51.616Z,1.04
2022-10-05T01:00:51.431Z,1.04
2022-10-05T01:01:51.454Z,1.04
2022-10-05T01:02:51.615Z,1.04
2022-10-05T01:03:51.648Z,1.04
2022-10-05T01:04:51.835Z,1.04
2022-10-05T01:05:51.950Z,1.04
2022-10-05T01:06:52.504Z,1.04
2022-10-05T01:07:52.225Z,1.04
2022-10-05T01:08:52.325Z,1.04
2022-10-05T01:09:52.469Z,1.04
2022-10-05T01:10:52.633Z,1.04
2022-10-05T01:11:52.723Z,1.04
2022-10-05T01:12:52.834Z,1.04
2022-10-05T01:13:52.990Z,1.04
2022-10-05T01:14:53.577Z,1.04
2022-10-05T01:15:53.241Z,1.04
2022-10-05T01:16:53.469Z,1.04
2022-10-05T01:17:53.493Z,1.04
2022-10-05T01:18:53.639Z,1.04
2022-10-05T01:19:53.797Z,1.04
2022-10-05T01:20:53.946Z,1.04
2022-10-05T01:21:54.050Z,1.04
2022-10-05T01:22:54.154Z,1.04
2022-10-05T01:23:54.311Z,1.04
2022-10-05T01:24:54.405Z,1.04
2022-10-05T01:25:54.504Z,1.04
2022-10-05T01:26:54.618Z,1.04
2022-10-05T01:27:54.807Z,1.04
2022-10-05T01:28:54.858Z,1.04
2022-10-05T01:29:55.441Z,1.04
2022-10-05T01:30:55.158Z,1.04
2022-10-05T01:31:55.358Z,1.04
2022-10-05T01:32:55.364Z,1.04
2022-10-05T01:33:55.471Z,1.04
2022-10-05T01:34:55.655Z,1.04
2022-10-05T01:35:56.209Z,1.04
2022-10-05T01:36:55.922Z,1.04
2022-10-05T01:37:56.072Z,1.04
2022-10-05T01:38:56.173Z,1.04
2022-10-05T01:39:56.276Z,1.04
2022-10-05T01:40:56.378Z,1.04
2022-10-05T01:41:56.485Z,1.04
2022-10-05T01:42:56.597Z,1.04
2022-10-05T01:43:56.731Z,1.04
2022-10-05T01:44:57.271Z,1.04
2022-10-05T01:45:57.046Z,1.04
2022-10-05T01:46:57.086Z,1.04
2022-10-05T01:47:57.196Z,1.04
2022-10-05T01:48:57.291Z,1.04
2022-10-05T01:49:57.447Z,1.04
2022-10-05T01:50:57.555Z,1.04
2022-10-05T01:51:57.648Z,1.04
2022-10-05T01:52:57.747Z,1.04
2022-10-05T01:53:57.855Z,1.04
2022-10-05T01:54:57.965Z,1.04
2022-10-05T01:55:58.063Z,1.04
2022-10-05T01:56:58.163Z,1.04
2022-10-05T01:57:58.262Z,1.04
2022-10-05T01:58:58.375Z,1.04
2022-10-05T01:59:58.944Z,1.04
2022-10-05T02:00:58.681Z,1.04
2022-10-05T02:01:58.762Z,1.04
2022-10-05T02:02:58.868Z,1.04
2022-10-05T02:03:58.976Z,1.04
2022-10-05T02:05:02.239Z,1.04
2022-10-05T02:05:59.221Z,1.04
2022-10-05T02:06:59.314Z,1.04
2022-10-05T02:07:59.500Z,1.04
2022-10-05T02:08:59.621Z,1.04
2022-10-05T02:09:59.756Z,1.04
2022-10-05T02:10:59.873Z,1.04
2022-10-05T02:12:00.474Z,1.04
2022-10-05T02:13:00.185Z,1.04
2022-10-05T02:14:00.337Z,1.04
2022-10-05T02:15:00.946Z,1.04
2022-10-05T02:16:00.752Z,1.04
2022-10-05T02:17:00.752Z,1.04
2022-10-05T02:18:00.854Z,1.04
2022-10-05T02:19:00.943Z,1.04
2022-10-05T02:20:01.040Z,1.04
2022-10-05T02:21:01.196Z,1.04
2022-10-05T02:22:01.350Z,1.04
2022-10-05T02:23:01.449Z,1.04
2022-10-05T02:24:01.601Z,1.04
2022-10-05T02:25:01.705Z,1.04
2022-10-05T02:26:01.810Z,1.04
2022-10-05T02:27:01.911Z,1.04
2022-10-05T02:28:02.128Z,1.04
2022-10-05T02:29:02.209Z,1.04
2022-10-05T02:30:02.752Z,1.04
2022-10-05T02:31:02.545Z,1.04
2022-10-05T02:32:02.629Z,1.04
2022-10-05T02:33:02.771Z,1.04
2022-10-05T02:34:02.874Z,1.04
2022-10-05T02:35:03.025Z,1.04
2022-10-05T02:36:03.122Z,1.04
2022-10-05T02:37:03.286Z,1.04
2022-10-05T02:38:03.379Z,1.04
2022-10-05T02:39:03.478Z,1.04
2022-10-05T02:40:03.584Z,1.04
2022-10-05T02:41:03.729Z,1.04
2022-10-05T02:42:03.829Z,1.04
2022-10-05T02:43:03.932Z,1.04
2022-10-05T02:44:04.089Z,1.04
2022-10-05T02:45:04.647Z,1.04
2022-10-05T02:46:04.462Z,1.04
2022-10-05T02:47:04.491Z,1.04
2022-10-05T02:48:04.647Z,1.04
2022-10-05T02:49:04.740Z,1.04
2022-10-05T02:50:04.847Z,1.04
2022-10-05T02:51:04.999Z,1.04
2022-10-05T02:52:05.098Z,1.04
2022-10-05T02:53:05.317Z,1.04
2022-10-05T02:54:05.362Z,1.04
2022-10-05T02:55:05.546Z,1.04
2022-10-05T02:56:06.137Z,1.04
2022-10-05T02:57:05.763Z,1.04
2022-10-05T02:58:05.867Z,1.04
2022-10-05T02:59:06.015Z,1.04
2022-10-05T03:00:06.520Z,1.04
2022-10-05T03:01:06.413Z,1.04
2022-10-05T03:02:06.440Z,1.04
2022-10-05T03:03:06.533Z,1.04
2022-10-05T03:04:06.670Z,1.04
2022-10-05T03:05:06.822Z,1.04
2022-10-05T03:06:06.927Z,1.04
2022-10-05T03:07:07.077Z,1.04
2022-10-05T03:08:07.224Z,1.04
2022-10-05T03:09:07.329Z,1.04
2022-10-05T03:10:07.435Z,1.04
2022-10-05T03:11:07.536Z,1.04
2022-10-05T03:12:07.682Z,1.04
2022-10-05T03:13:07.797Z,1.04
2022-10-05T03:14:07.890Z,1.04
2022-10-05T03:15:08.522Z,1.04
2022-10-05T03:16:08.260Z,1.04
2022-10-05T03:17:08.343Z,1.04
2022-10-05T03:18:08.437Z,1.04
2022-10-05T03:19:08.597Z,1.04
2022-10-05T03:20:08.697Z,1.04
2022-10-05T03:21:08.844Z,1.04
2022-10-05T03:22:08.947Z,1.04
2022-10-05T03:23:09.057Z,1.04
2022-10-05T03:24:09.158Z,1.04
2022-10-05T03:25:09.254Z,1.04
2022-10-05T03:26:09.361Z,1.04
2022-10-05T03:27:09.508Z,1.04
2022-10-05T03:28:09.679Z,1.04
2022-10-05T03:29:09.758Z,1.04
2022-10-05T03:30:10.394Z,1.04
2022-10-05T03:31:10.091Z,1.04
2022-10-05T03:32:10.133Z,1.04
2022-10-05T03:33:10.228Z,1.04
2022-10-05T03:34:10.385Z,1.04
2022-10-05T03:35:10.564Z,1.04
2022-10-05T03:36:10.678Z,1.04
2022-10-05T03:37:10.827Z,1.04
2022-10-05T03:38:10.989Z,1.04
2022-10-05T03:39:11.091Z,1.04
2022-10-05T03:40:11.182Z,1.04
2022-10-05T03:41:11.347Z,1.04
2022-10-05T03:42:11.484Z,1.04
2022-10-05T03:43:11.644Z,1.04
2022-10-05T03:44:11.754Z,1.04
2022-10-05T03:45:12.297Z,1.04
2022-10-05T03:46:12.137Z,1.04
2022-10-05T03:47:12.193Z,1.04
2022-10-05T03:48:12.341Z,1.04
2022-10-05T03:49:12.446Z,1.04
2022-10-05T03:50:12.563Z,1.04
2022-10-05T03:51:12.764Z,1.04
2022-10-05T03:52:13.329Z,1.04
2022-10-05T03:53:13.018Z,1.04
2022-10-05T03:54:13.136Z,1.04
2022-10-05T03:55:13.258Z,1.04
2022-10-05T03:56:13.432Z,1.04
2022-10-05T03:57:13.529Z,1.04
2022-10-05T03:58:13.700Z,1.04
2022-10-05T03:59:13.799Z,1.04
2022-10-05T04:00:14.010Z,1.04
2022-10-05T04:01:14.122Z,1.04
2022-10-05T04:02:14.273Z,1.04
2022-10-05T04:03:14.359Z,1.04
2022-10-05T04:04:15.644Z,1.04
2022-10-05T04:05:14.671Z,1.04
2022-10-05T04:06:14.830Z,1.04
2022-10-05T04:07:14.930Z,1.04
2022-10-05T04:08:15.081Z,1.04
2022-10-05T04:09:15.235Z,1.04
2022-10-05T04:10:15.338Z,1.04
2022-10-05T04:11:15.489Z,1.04
2022-10-05T04:12:15.637Z,1.04
2022-10-05T04:13:15.743Z,1.04
2022-10-05T04:14:15.843Z,1.04
2022-10-05T04:15:18.792Z,1.04
2022-10-05T04:16:16.214Z,1.04
2022-10-05T04:17:16.247Z,1.04
2022-10-05T04:18:16.388Z,1.04
2022-10-05T04:19:16.514Z,1.04
2022-10-05T04:20:16.651Z,1.04
2022-10-05T04:21:20.132Z,1.04
2022-10-05T04:22:16.861Z,1.04
2022-10-05T04:23:17.009Z,1.04
2022-10-05T04:24:17.113Z,1.04
2022-10-05T04:25:17.219Z,1.04
2022-10-05T04:26:17.369Z,1.04
2022-10-05T04:27:17.466Z,1.04
2022-10-05T04:28:17.649Z,1.04
2022-10-05T04:29:17.717Z,1.04
2022-10-05T04:30:18.294Z,1.04
2022-10-05T04:31:18.065Z,1.04
2022-10-05T04:32:18.189Z,1.04
2022-10-05T04:33:18.265Z,1.04
2022-10-05T04:34:18.429Z,1.04
2022-10-05T04:35:18.525Z,1.04
2022-10-05T04:36:18.646Z,1.04
2022-10-05T04:37:18.775Z,2
2022-10-05T04:38:18.881Z,2
2022-10-05T04:39:18.982Z,2
2022-10-05T04:40:19.137Z,2
2022-10-05T04:41:19.236Z,3.04
2022-10-05T04:42:19.333Z,3.04
2022-10-05T04:43:19.485Z,3.04
2022-10-05T04:44:19.605Z,4
2022-10-05T04:45:20.223Z,5.04
2022-10-05T04:46:20.006Z,5.04
2022-10-05T04:47:20.004Z,6
2022-10-05T04:48:20.164Z,7.04
2022-10-05T04:49:20.301Z,9.04
2022-10-05T04:50:20.861Z,10
2022-10-05T04:51:20.619Z,12
2022-10-05T04:52:20.700Z,14
2022-10-05T04:53:20.803Z,16
2022-10-05T04:54:20.955Z,19.04
2022-10-05T04:55:21.112Z,23.04
2022-10-05T04:56:21.218Z,28
2022-10-05T04:57:21.312Z,34
2022-10-05T04:58:21.422Z,43.04
2022-10-05T04:59:21.515Z,50
2022-10-05T05:00:22.104Z,60
2022-10-05T05:01:21.889Z,99.04
2022-10-05T05:02:21.923Z,116
2022-10-05T05:03:22.146Z,131.04
2022-10-05T05:04:22.175Z,150
2022-10-05T05:05:22.336Z,166.08
2022-10-05T05:06:22.445Z,190.08
2022-10-05T05:07:22.538Z,211.04
2022-10-05T05:08:22.718Z,238.08
2022-10-05T05:09:22.788Z,263.04
2022-10-05T05:10:22.930Z,294.08
2022-10-05T05:11:24.648Z,321.12
2022-10-05T05:12:23.187Z,352
2022-10-05T05:13:23.290Z,380.16
2022-10-05T05:14:23.434Z,416
2022-10-05T05:15:24.021Z,448
2022-10-05T05:16:23.895Z,484.16
2022-10-05T05:17:23.802Z,530.24
2022-10-05T05:18:23.901Z,567.04
2022-10-05T05:19:24.054Z,608
2022-10-05T05:20:24.209Z,663.04
2022-10-05T05:21:24.305Z,716.16
2022-10-05T05:22:24.454Z,792.32
2022-10-05T05:23:24.554Z,860.16
2022-10-05T05:24:24.667Z,941.44
2022-10-05T05:25:24.774Z,1046.4
2022-10-05T05:26:24.914Z,1144.32
2022-10-05T05:27:25.074Z,1229.44
2022-10-05T05:28:25.244Z,1377.28
2022-10-05T05:29:25.278Z,1463.04
2022-10-05T05:30:25.800Z,1585.92
2022-10-05T05:31:25.575Z,1679.36
2022-10-05T05:32:25.623Z,1797.12
2022-10-05T05:33:25.769Z,1888
2022-10-05T05:34:25.894Z,2007.04
2022-10-05T05:35:25.985Z,2100.48
2022-10-05T05:36:26.506Z,2191.36
2022-10-05T05:37:26.287Z,2304
2022-10-05T05:38:26.381Z,2387.2
2022-10-05T05:39:26.489Z,2481.92
2022-10-05T05:40:26.634Z,2533.12
2022-10-05T05:41:26.789Z,2615.04
2022-10-05T05:42:26.885Z,2698.24
2022-10-05T05:43:26.988Z,2808.32
2022-10-05T05:44:27.146Z,2890.24
2022-10-05T05:45:27.751Z,2967.04
2022-10-05T05:46:44.940Z,3036.16
2022-10-05T05:47:27.563Z,3130.88
2022-10-05T05:48:27.710Z,3192.32
2022-10-05T05:49:27.822Z,3279.36
2022-10-05T05:50:27.959Z,3351.04
2022-10-05T05:51:28.060Z,3438.08
2022-10-05T05:52:28.211Z,3509.76
2022-10-05T05:53:28.374Z,3591.68
2022-10-05T05:54:28.461Z,3653.12
2022-10-05T05:55:30.291Z,3727.36
2022-10-05T05:56:28.664Z,3799.04
2022-10-05T05:57:28.772Z,3893.76
2022-10-05T05:58:28.876Z,3975.68
2022-10-05T05:59:28.982Z,4093.44
2022-10-05T06:00:29.485Z,4216.32
2022-10-05T06:01:33.483Z,4385.28
2022-10-05T06:02:29.433Z,4567.04
2022-10-05T06:03:29.514Z,4928
2022-10-05T06:04:29.573Z,5570.56
2022-10-05T06:05:29.731Z,6819.84
2022-10-05T06:06:29.881Z,7874.56
2022-10-05T06:07:30.804Z,8581.12
2022-10-05T06:08:30.116Z,8832
2022-10-05T06:09:30.236Z,9461.76
2022-10-05T06:10:30.340Z,11735.04
2022-10-05T06:11:30.434Z,14755.84
2022-10-05T06:12:30.592Z,17326.08
2022-10-05T06:13:30.741Z,16005.12
2022-10-05T06:14:30.862Z,12584.96
2022-10-05T06:15:31.825Z,12584.96
2022-10-05T06:16:31.166Z,14899.199
2022-10-05T06:17:31.198Z,18585.6
2022-10-05T06:18:31.306Z,19210.24
2022-10-05T06:19:31.411Z,16844.8
2022-10-05T06:20:31.505Z,14254.08
2022-10-05T06:21:31.614Z,12922.88
2022-10-05T06:22:31.764Z,12840.96
2022-10-05T06:23:31.858Z,15144.96
2022-10-05T06:24:32.021Z,21381.12
2022-10-05T06:25:32.182Z,23818.24
2022-10-05T06:26:32.325Z,24330.24
2022-10-05T06:27:32.465Z,24043.52
2022-10-05T06:28:32.641Z,25067.52
2022-10-05T06:29:32.671Z,26173.44
2022-10-05T06:30:33.244Z,27054.08
2022-10-05T06:31:32.976Z,26583.04
2022-10-05T06:32:33.086Z,26091.52
2022-10-05T06:33:33.185Z,23572.48
2022-10-05T06:34:33.285Z,19968
2022-10-05T06:35:33.375Z,18278.4
2022-10-05T06:36:33.485Z,22650.88
2022-10-05T06:37:33.630Z,22609.92
2022-10-05T06:38:33.779Z,22712.32
2022-10-05T06:39:33.885Z,25886.72
2022-10-05T06:40:33.985Z,17643.52
2022-10-05T06:41:34.139Z,12103.68
2022-10-05T06:42:34.783Z,9231.359
2022-10-05T06:43:34.442Z,9697.279
2022-10-05T06:44:34.554Z,11233.279
2022-10-05T06:45:35.219Z,14725.12
2022-10-05T06:46:34.856Z,17070.08
2022-10-05T06:47:34.962Z,17346.56
2022-10-05T06:48:35.114Z,21381.12
2022-10-05T06:49:35.204Z,24903.68
2022-10-05T06:50:35.357Z,25292.8
2022-10-05T06:51:35.459Z,25333.76
2022-10-05T06:52:35.566Z,25169.92
2022-10-05T06:53:35.681Z,27852.8
2022-10-05T06:54:35.813Z,30003.2
2022-10-05T06:55:35.914Z,34017.28
2022-10-05T06:56:36.012Z,35491.84
2022-10-05T06:57:36.151Z,37765.12
2022-10-05T06:58:36.217Z,38912
2022-10-05T06:59:36.318Z,41390.08
2022-10-05T07:00:36.852Z,41553.92
2022-10-05T07:01:36.630Z,42885.12
2022-10-05T07:02:36.719Z,41635.84
2022-10-05T07:03:36.774Z,44318.72
2022-10-05T07:04:37.271Z,47267.84
2022-10-05T07:05:36.986Z,48168.96
2022-10-05T07:06:37.080Z,49029.12
2022-10-05T07:07:37.229Z,49971.2
2022-10-05T07:08:37.403Z,51036.16
2022-10-05T07:09:37.487Z,51281.92
2022-10-05T07:10:37.638Z,53248
2022-10-05T07:11:37.804Z,53862.4
2022-10-05T07:12:37.895Z,54517.76
2022-10-05T07:13:38.045Z,54272
2022-10-05T07:14:38.156Z,51281.92
2022-10-05T07:15:38.684Z,54599.68
2022-10-05T07:16:38.462Z,55173.12
2022-10-05T07:17:38.564Z,55255.04
2022-10-05T07:18:38.651Z,53166.08
2022-10-05T07:19:38.758Z,52961.28
2022-10-05T07:20:38.864Z,54927.36
2022-10-05T07:21:38.955Z,56320
2022-10-05T07:22:39.438Z,52879.36
2022-10-05T07:23:39.211Z,56156.16
2022-10-05T07:24:39.306Z,54599.68
2022-10-05T07:25:39.486Z,53903.36
2022-10-05T07:26:39.567Z,52756.48
2022-10-05T07:27:39.672Z,51650.56
2022-10-05T07:28:39.890Z,50585.6
2022-10-05T07:29:39.919Z,51691.52
2022-10-05T07:30:40.517Z,52142.08
2022-10-05T07:31:40.180Z,49848.32
2022-10-05T07:32:40.340Z,48619.52
2022-10-05T07:33:40.429Z,49766.4
2022-10-05T07:34:40.586Z,52592.64
2022-10-05T07:35:40.685Z,54558.72
2022-10-05T07:36:40.778Z,55705.6
2022-10-05T07:37:40.885Z,54681.6
2022-10-05T07:38:41.046Z,53248
2022-10-05T07:39:59.457Z,53043.2
2022-10-05T07:40:41.237Z,54599.68
2022-10-05T07:41:41.345Z,54681.6
2022-10-05T07:42:47.541Z,55623.68
2022-10-05T07:44:00.823Z,56401.92
2022-10-05T07:44:42.360Z,55418.88
2022-10-05T07:45:42.135Z,39116.8
2022-10-05T07:46:42.255Z,57016.32
2022-10-05T07:47:42.405Z,57425.92
2022-10-05T07:48:42.499Z,56401.92
2022-10-05T07:49:42.618Z,40591.36
2022-10-05T07:50:42.761Z,50790.4
2022-10-05T07:51:42.862Z,50421.76
2022-10-05T07:52:43.010Z,45752.32
2022-10-05T07:53:43.111Z,51650.56
2022-10-05T07:54:43.212Z,56074.24
2022-10-05T07:55:43.313Z,54312.96
2022-10-05T07:56:43.525Z,55009.28
2022-10-05T07:57:43.567Z,55214.08
2022-10-05T07:58:43.713Z,54763.52
2022-10-05T07:59:44.252Z,52797.44
2022-10-05T08:00:43.927Z,50462.72
2022-10-05T08:01:44.173Z,49356.8
2022-10-05T08:02:44.243Z,49438.72
2022-10-05T08:03:44.265Z,50831.36
2022-10-05T08:04:44.807Z,49274.88
2022-10-05T08:05:44.569Z,52428.8
2022-10-05T08:06:45.048Z,40181.76
2022-10-05T08:07:44.796Z,55091.2
2022-10-05T08:08:44.891Z,56074.24
2022-10-05T08:09:44.998Z,53944.32
2022-10-05T08:10:45.146Z,50790.4
2022-10-05T08:11:45.529Z,54435.84
2022-10-05T08:12:45.343Z,51855.36
2022-10-05T08:13:45.503Z,51404.8
2022-10-05T08:14:46.037Z,51118.08
2022-10-05T08:15:45.793Z,51568.64
2022-10-05T08:16:45.900Z,54435.84
2022-10-05T08:17:46.055Z,44195.84
2022-10-05T08:18:46.207Z,46120.96
2022-10-05T08:19:46.359Z,57303.04
2022-10-05T08:20:46.510Z,52756.48
2022-10-05T08:21:46.880Z,53739.52
2022-10-05T08:22:46.714Z,58695.68
2022-10-05T08:23:46.866Z,60784.64
2022-10-05T08:24:46.963Z,59514.88
2022-10-05T08:25:47.069Z,59146.24
2022-10-05T08:26:47.213Z,41615.36
2022-10-05T08:27:47.331Z,31600.64
2022-10-05T08:28:47.418Z,30597.12
2022-10-05T08:29:48.008Z,32481.28
2022-10-05T08:30:47.708Z,42762.24
2022-10-05T08:31:47.949Z,46571.52
2022-10-05T08:32:47.920Z,44810.24
2022-10-05T08:33:48.453Z,51650.56
2022-10-05T08:34:48.241Z,50749.44
2022-10-05T08:35:48.329Z,55377.92
2022-10-05T08:36:52.991Z,53985.28
2022-10-05T08:37:48.587Z,52510.72
2022-10-05T08:38:48.748Z,50176
2022-10-05T08:39:48.845Z,43868.16
2022-10-05T08:40:48.947Z,43991.04
2022-10-05T08:41:49.414Z,35921.92
2022-10-05T08:42:49.209Z,41553.92
2022-10-05T08:43:49.347Z,40202.24
2022-10-05T08:44:49.923Z,39239.68
2022-10-05T08:45:49.685Z,44113.92
2022-10-05T08:46:49.750Z,38440.96
2022-10-05T08:47:49.904Z,50012.16
2022-10-05T08:48:50.015Z,41820.16
2022-10-05T08:49:50.107Z,58204.16
2022-10-05T08:50:50.212Z,59514.88
2022-10-05T08:51:50.398Z,59637.76
2022-10-05T08:52:50.475Z,60620.8
2022-10-05T08:53:50.616Z,62095.36
2022-10-05T08:54:50.711Z,63610.88
2022-10-05T08:55:50.826Z,59883.52
2022-10-05T08:56:50.918Z,57016.32
2022-10-05T08:57:51.018Z,53493.76
2022-10-05T08:58:51.167Z,56238.08
2022-10-05T08:59:51.804Z,56401.92
2022-10-05T09:00:51.484Z,58327.04
2022-10-05T09:01:51.571Z,59023.36
2022-10-05T09:02:51.686Z,58900.48
2022-10-05T09:03:51.725Z,57016.32
2022-10-05T09:04:51.824Z,46776.32
2022-10-05T09:05:51.978Z,40263.68
2022-10-05T09:06:52.096Z,33730.56
2022-10-05T09:07:52.255Z,32542.72
2022-10-05T09:08:52.410Z,33402.88
2022-10-05T09:09:52.490Z,38522.88
2022-10-05T09:10:52.642Z,42803.2
2022-10-05T09:11:52.796Z,36761.6
2022-10-05T09:12:52.956Z,26030.08
2022-10-05T09:13:53.066Z,22855.68
2022-10-05T09:15:13.571Z,22630.4
2022-10-05T09:15:53.327Z,22159.36
2022-10-05T09:16:53.405Z,23654.4
2022-10-05T09:17:53.551Z,22241.28
2022-10-05T09:18:53.706Z,21196.8
2022-10-05T09:19:53.810Z,20899.84
2022-10-05T09:20:53.940Z,20101.12
2022-10-05T09:21:54.019Z,19763.2
2022-10-05T09:22:54.107Z,19251.2
2022-10-05T09:23:54.271Z,19118.08
2022-10-05T09:24:54.370Z,19281.92
2022-10-05T09:25:54.471Z,20111.36
2022-10-05T09:26:54.570Z,20674.56
2022-10-05T09:27:54.732Z,21135.36
2022-10-05T09:28:54.757Z,23715.84
2022-10-05T09:29:54.908Z,27668.48
2022-10-05T09:30:55.088Z,29491.2
2022-10-05T09:31:55.162Z,33812.48
2022-10-05T09:32:55.337Z,35655.68
2022-10-05T09:33:55.413Z,29655.04
2022-10-05T09:34:55.691Z,30167.04
2022-10-05T09:35:55.748Z,29900.8
2022-10-05T09:36:55.885Z,32931.84
2022-10-05T09:37:56.015Z,36208.64
2022-10-05T09:38:56.142Z,34754.56
2022-10-05T09:40:00.517Z,33484.8
2022-10-05T09:40:56.389Z,36126.72
2022-10-05T09:41:56.542Z,37355.52
2022-10-05T09:42:56.687Z,39219.2
2022-10-05T09:43:56.847Z,39690.24
2022-10-05T09:44:57.483Z,41492.48
2022-10-05T09:45:57.210Z,42516.48
2022-10-05T09:46:57.328Z,44154.88
2022-10-05T09:47:57.457Z,43294.72
2022-10-05T09:48:57.549Z,44236.8
2022-10-05T09:49:57.716Z,42598.4
2022-10-05T09:50:57.854Z,40898.56
2022-10-05T09:51:57.957Z,41676.8
2022-10-05T09:52:58.061Z,45998.08
2022-10-05T09:53:58.168Z,50094.08
2022-10-05T09:54:58.266Z,49684.48
2022-10-05T09:55:58.381Z,51650.56
2022-10-05T09:56:58.472Z,45711.36
2022-10-05T09:57:58.603Z,46735.36
2022-10-05T09:58:58.721Z,41922.56
2022-10-05T09:59:59.249Z,41779.2
2022-10-05T10:01:03.751Z,35430.4
2022-10-05T10:01:59.136Z,38195.2
2022-10-05T10:02:59.212Z,40652.8
2022-10-05T10:03:59.274Z,38236.16
2022-10-05T10:04:59.378Z,44154.88
2022-10-05T10:05:59.532Z,51404.8
2022-10-05T10:06:59.643Z,49111.04
2022-10-05T10:07:59.743Z,47144.96
2022-10-05T10:08:59.847Z,43909.12
2022-10-05T10:09:59.965Z,40878.08
2022-10-05T10:11:00.042Z,34631.68
2022-10-05T10:12:00.198Z,30597.12
2022-10-05T10:13:00.348Z,34938.88
2022-10-05T10:14:00.503Z,33484.8
2022-10-05T10:15:02.946Z,31928.32
2022-10-05T10:16:00.933Z,31129.6
2022-10-05T10:17:00.962Z,30515.2
2022-10-05T10:18:01.055Z,30822.4
2022-10-05T10:19:01.203Z,31027.2
2022-10-05T10:20:01.305Z,30863.36
2022-10-05T10:21:01.406Z,30064.64
2022-10-05T10:22:01.505Z,29593.6
2022-10-05T10:23:01.814Z,29081.6
2022-10-05T10:24:02.401Z,29081.6
2022-10-05T10:25:02.070Z,29757.44
2022-10-05T10:26:02.178Z,29716.48
2022-10-05T10:27:02.326Z,28815.36
2022-10-05T10:28:02.466Z,28672
2022-10-05T10:29:02.526Z,28037.12
2022-10-05T10:30:03.111Z,27095.04
2022-10-05T10:31:02.808Z,26767.36
2022-10-05T10:32:03.254Z,27197.44
2022-10-05T10:33:03.041Z,26357.76
2022-10-05T10:34:03.126Z,26951.68
2022-10-05T10:35:03.276Z,28651.52
2022-10-05T10:36:04.551Z,28979.2
2022-10-05T10:37:03.584Z,30146.56
2022-10-05T10:38:03.736Z,30228.48
2022-10-05T10:39:03.890Z,30228.48
2022-10-05T10:40:04.038Z,29122.56
2022-10-05T10:41:04.190Z,27279.36
2022-10-05T10:42:04.305Z,29388.8
2022-10-05T10:43:04.402Z,29204.48
2022-10-05T10:44:04.529Z,29122.56
2022-10-05T10:45:05.127Z,28364.8
2022-10-05T10:46:04.818Z,27176.96
2022-10-05T10:47:05.101Z,26521.6
2022-10-05T10:48:05.632Z,26152.96
2022-10-05T10:49:05.352Z,26112
2022-10-05T10:50:05.506Z,25804.8
2022-10-05T10:51:05.612Z,24985.6
2022-10-05T10:52:05.712Z,23613.44
2022-10-05T10:53:05.824Z,22364.16
2022-10-05T10:54:05.968Z,22466.56
2022-10-05T10:55:06.083Z,23920.64
2022-10-05T10:56:06.214Z,25313.28
2022-10-05T10:57:06.323Z,26849.28
2022-10-05T10:58:06.423Z,27811.84
2022-10-05T10:59:06.524Z,29593.6
2022-10-05T11:00:07.131Z,30310.4
2022-10-05T11:01:06.779Z,25763.84
2022-10-05T11:02:06.982Z,25354.24
2022-10-05T11:03:07.076Z,28446.72
2022-10-05T11:04:07.130Z,29163.52
2022-10-05T11:05:07.239Z,29552.64
2022-10-05T11:06:07.385Z,30556.16
2022-10-05T11:07:07.489Z,31600.64
2022-10-05T11:08:07.609Z,31027.2
2022-10-05T11:09:07.694Z,31744
2022-10-05T11:10:07.846Z,31457.28
2022-10-05T11:11:07.941Z,30740.48
2022-10-05T11:12:08.101Z,29061.12
2022-10-05T11:13:08.254Z,28282.88
2022-10-05T11:14:08.400Z,28037.12
2022-10-05T11:15:08.981Z,27484.16
2022-10-05T11:16:08.693Z,26521.6
2022-10-05T11:17:08.797Z,25538.56
2022-10-05T11:18:08.906Z,25395.2
2022-10-05T11:19:09.005Z,24145.92
2022-10-05T11:20:09.170Z,23408.64
2022-10-05T11:21:09.306Z,24330.24
2022-10-05T11:22:09.416Z,24125.44
2022-10-05T11:23:09.510Z,24616.96
2022-10-05T11:24:09.621Z,24760.32
2022-10-05T11:25:09.714Z,24965.12
2022-10-05T11:26:09.863Z,22855.68
2022-10-05T11:27:09.993Z,23900.16
2022-10-05T11:28:10.093Z,24186.88
2022-10-05T11:29:10.175Z,22794.24
2022-10-05T11:30:10.754Z,23838.72
2022-10-05T11:31:10.503Z,24985.6
2022-10-05T11:32:10.574Z,26378.24
2022-10-05T11:33:10.728Z,25620.48
2022-10-05T11:34:10.886Z,26337.28
2022-10-05T11:35:10.991Z,26091.52
2022-10-05T11:36:11.115Z,24616.96
2022-10-05T11:37:11.195Z,23224.32
2022-10-05T11:38:11.293Z,23080.96
2022-10-05T11:39:11.388Z,22814.72
2022-10-05T11:40:11.488Z,21319.68
2022-10-05T11:41:11.650Z,19005.44
2022-10-05T11:42:11.798Z,19200
2022-10-05T11:43:11.952Z,19200
2022-10-05T11:44:12.101Z,19978.24
2022-10-05T11:45:12.833Z,20449.28
2022-10-05T11:46:12.488Z,20039.68
2022-10-05T11:47:12.555Z,19179.52
2022-10-05T11:48:12.653Z,18882.56
2022-10-05T11:49:12.820Z,18595.84
2022-10-05T11:50:12.925Z,18708.48
2022-10-05T11:51:13.056Z,19445.76
2022-10-05T11:52:13.161Z,19578.88
2022-10-05T11:53:13.266Z,19773.44
2022-10-05T11:54:13.370Z,19834.88
2022-10-05T11:55:13.521Z,19814.4
2022-10-05T11:56:13.687Z,19527.68
2022-10-05T11:57:13.835Z,19578.88
2022-10-05T11:58:13.989Z,19496.96
2022-10-05T11:59:14.129Z,19128.32
2022-10-05T12:00:14.711Z,18759.68
2022-10-05T12:01:14.424Z,17920
2022-10-05T12:02:14.534Z,17100.8
2022-10-05T12:03:14.860Z,16558.08
2022-10-05T12:04:14.829Z,16363.52
2022-10-05T12:05:14.946Z,15902.72
2022-10-05T12:06:15.034Z,16066.56
2022-10-05T12:07:15.145Z,16107.52
2022-10-05T12:08:15.233Z,15974.399
2022-10-05T12:09:15.337Z,16035.84
2022-10-05T12:10:15.442Z,15708.159
2022-10-05T12:11:15.540Z,14899.199
2022-10-05T12:12:15.691Z,15431.68
2022-10-05T12:13:15.841Z,15544.319
2022-10-05T12:14:15.947Z,16547.84
2022-10-05T12:15:16.587Z,17264.64
2022-10-05T12:16:16.293Z,17070.08
2022-10-05T12:17:16.386Z,16486.4
2022-10-05T12:18:16.501Z,15790.08
2022-10-05T12:19:16.660Z,14796.8
2022-10-05T12:20:16.820Z,15636.479
2022-10-05T12:21:16.965Z,15216.64
2022-10-05T12:22:17.067Z,13158.399
2022-10-05T12:23:17.181Z,13629.439
2022-10-05T12:24:17.321Z,14346.239
2022-10-05T12:25:17.467Z,13199.359
2022-10-05T12:26:17.634Z,13209.6
2022-10-05T12:27:17.769Z,13352.96
2022-10-05T12:28:17.904Z,13035.52
2022-10-05T12:29:17.983Z,13271.04